createdAt,value
2019-05-12T00:00:39.082Z,99.90
2019-05-12T00:03:19.886Z,99.90
2019-05-12T00:05:49.291Z,99.90
2019-05-12T00:08:38.208Z,99.90
2019-05-12T00:11:19.878Z,99.90
2019-05-12T00:14:01.659Z,99.90
2019-05-12T00:16:43.564Z,99.90
2019-05-12T00:19:25.381Z,99.90
2019-05-12T00:22:07.751Z,99.90
2019-05-12T00:24:49.395Z,99.90
2019-05-12T00:27:30.928Z,99.90
2019-05-12T00:30:14.091Z,99.90
2019-05-12T00:32:57.676Z,99.90
2019-05-12T00:35:39.540Z,99.90
2019-05-12T00:38:21.624Z,99.90
2019-05-12T00:41:06.027Z,99.90
2019-05-12T00:43:48.752Z,99.90
2019-05-12T00:46:30.122Z,99.90
2019-05-12T00:49:11.871Z,99.90
2019-05-12T00:51:53.814Z,99.90
2019-05-12T00:54:37.584Z,99.90
2019-05-12T00:57:19.441Z,99.90
2019-05-12T01:00:01.041Z,99.90
2019-05-12T01:02:42.929Z,99.90
2019-05-12T01:05:29.183Z,99.90
2019-05-12T01:08:09.946Z,99.90
2019-05-12T01:10:51.864Z,99.90
2019-05-12T01:13:33.023Z,99.90
2019-05-12T01:16:14.752Z,99.90
2019-05-12T01:18:58.466Z,99.90
2019-05-12T01:21:39.805Z,99.90
2019-05-12T01:24:21.050Z,99.90
2019-05-12T01:27:02.529Z,99.90
2019-05-12T01:29:44.014Z,99.90
2019-05-12T01:35:39.514Z,99.90
2019-05-12T01:38:20.662Z,99.90
2019-05-12T01:41:02.684Z,99.90
2019-05-12T01:43:32.058Z,99.90
2019-05-12T01:46:20.795Z,99.90
2019-05-12T01:49:02.055Z,99.90
2019-05-12T01:51:44.070Z,99.90
2019-05-12T01:54:27.699Z,99.90
2019-05-12T01:57:08.410Z,99.90
2019-05-12T01:59:49.947Z,99.90
2019-05-12T02:02:31.798Z,99.90
2019-05-12T02:05:13.579Z,99.90
2019-05-12T02:07:58.361Z,99.90
2019-05-12T02:10:39.211Z,99.90
2019-05-12T02:13:20.372Z,99.90
2019-05-12T02:16:02.266Z,99.90
2019-05-12T02:18:43.439Z,99.90
2019-05-12T02:21:27.790Z,99.90
2019-05-12T02:24:22.334Z,99.90
2019-05-12T02:26:51.644Z,99.90
2019-05-12T02:29:33.327Z,99.90
2019-05-12T02:32:15.369Z,99.90
2019-05-12T02:34:56.752Z,99.90
2019-05-12T02:37:38.476Z,99.90
2019-05-12T02:40:20.216Z,99.90
2019-05-12T02:42:59.920Z,99.90
2019-05-12T02:45:48.666Z,99.90
2019-05-12T02:48:29.955Z,99.90
2019-05-12T02:51:11.757Z,99.90
2019-05-12T02:53:54.563Z,99.90
2019-05-12T02:56:36.120Z,99.90
2019-05-12T02:59:17.838Z,99.90
2019-05-12T03:01:59.623Z,99.90
2019-05-12T03:04:45.166Z,99.90
2019-05-12T03:07:26.350Z,99.90
2019-05-12T03:10:08.197Z,99.90
2019-05-12T03:12:50.001Z,99.90
2019-05-12T03:15:31.313Z,99.90
2019-05-12T03:18:14.669Z,99.90
2019-05-12T03:20:55.631Z,99.90
2019-05-12T03:23:37.510Z,99.90
2019-05-12T03:26:19.473Z,99.90
2019-05-12T03:29:00.693Z,99.90
2019-05-12T03:31:47.893Z,99.90
2019-05-12T03:34:29.215Z,99.90
2019-05-12T03:37:09.820Z,99.90
2019-05-12T03:39:54.001Z,99.90
2019-05-12T03:42:35.477Z,99.90
2019-05-12T03:45:17.220Z,99.90
2019-05-12T03:47:59.062Z,99.90
2019-05-12T03:50:40.223Z,99.90
2019-05-12T03:53:24.395Z,99.90
2019-05-12T03:56:04.645Z,99.90
2019-05-12T04:01:26.620Z,99.90
2019-05-12T04:04:08.586Z,99.90
2019-05-12T04:06:50.717Z,99.90
2019-05-12T04:09:34.752Z,99.90
2019-05-12T04:12:15.089Z,99.90
2019-05-12T04:14:56.694Z,99.90
2019-05-12T04:17:39.030Z,99.90
2019-05-12T04:20:20.785Z,99.90
2019-05-12T04:23:05.906Z,99.90
2019-05-12T04:25:52.384Z,99.90
2019-05-12T04:28:28.639Z,99.90
2019-05-12T04:31:10.493Z,99.90
2019-05-12T04:33:39.886Z,99.90
2019-05-12T04:36:28.580Z,99.90
2019-05-12T04:39:10.020Z,99.90
2019-05-12T04:41:54.993Z,99.90
2019-05-12T04:44:35.327Z,99.90
2019-05-12T04:47:16.773Z,99.90
2019-05-12T04:49:58.635Z,99.90
2019-05-12T04:52:40.602Z,99.90
2019-05-12T04:55:25.672Z,99.90
2019-05-12T04:58:05.386Z,99.90
2019-05-12T05:00:47.382Z,99.90
2019-05-12T05:03:28.583Z,99.90
2019-05-12T05:06:10.446Z,99.90
2019-05-12T05:08:54.416Z,99.90
2019-05-12T05:11:35.212Z,99.90
2019-05-12T05:14:17.189Z,99.90
2019-05-12T05:17:04.404Z,99.90
2019-05-12T05:19:44.466Z,99.90
2019-05-12T05:22:26.451Z,99.90
2019-05-12T05:24:55.826Z,99.90
2019-05-12T05:27:50.387Z,99.90
2019-05-12T05:30:33.936Z,99.90
2019-05-12T05:33:15.438Z,99.90
2019-05-12T05:35:57.210Z,99.90
2019-05-12T05:38:39.346Z,99.90
2019-05-12T05:41:21.234Z,99.90
2019-05-12T05:44:04.150Z,99.90
2019-05-12T05:46:50.014Z,99.90
2019-05-12T05:49:28.546Z,99.90
2019-05-12T05:52:10.396Z,99.90
2019-05-12T05:54:53.195Z,99.90
2019-05-12T05:57:34.603Z,99.90
2019-05-12T06:00:22.807Z,99.90
2019-05-12T06:03:00.181Z,99.90
2019-05-12T06:05:43.336Z,99.90
2019-05-12T06:08:24.596Z,99.90
2019-05-12T06:11:08.525Z,99.90
2019-05-12T06:13:50.057Z,99.90
2019-05-12T06:16:31.210Z,99.90
2019-05-12T06:19:14.103Z,99.90
2019-05-12T06:21:55.655Z,99.90
2019-05-12T06:24:37.660Z,99.90
2019-05-12T06:27:20.995Z,99.90
2019-05-12T06:30:05.944Z,99.90
2019-05-12T06:32:50.118Z,99.90
2019-05-12T06:35:30.878Z,99.90
2019-05-12T06:38:13.589Z,99.90
2019-05-12T06:40:55.654Z,99.90
2019-05-12T06:43:38.834Z,99.90
2019-05-12T06:46:22.904Z,99.90
2019-05-12T06:49:11.854Z,99.90
2019-05-12T06:51:47.398Z,99.90
2019-05-12T06:54:29.147Z,99.90
2019-05-12T06:57:24.114Z,99.90
2019-05-12T06:59:55.192Z,99.90
2019-05-12T07:02:49.112Z,99.90
2019-05-12T07:05:23.140Z,99.90
2019-05-12T07:08:04.408Z,99.90
2019-05-12T07:10:51.664Z,99.90
2019-05-12T07:13:29.673Z,99.90
2019-05-12T07:16:23.026Z,99.90
2019-05-12T07:19:22.870Z,99.90
2019-05-12T07:22:04.899Z,99.90
2019-05-12T07:24:50.041Z,99.90
2019-05-12T07:27:36.686Z,99.90
2019-05-12T07:30:13.707Z,99.90
2019-05-12T07:32:59.760Z,99.90
2019-05-12T07:35:38.327Z,99.90
2019-05-12T07:38:21.277Z,99.90
2019-05-12T07:41:08.804Z,99.90
2019-05-12T07:43:50.563Z,99.90
2019-05-12T07:46:29.724Z,99.90
2019-05-12T07:48:59.142Z,99.90
2019-05-12T07:51:50.030Z,99.90
2019-05-12T07:54:53.763Z,99.90
2019-05-12T07:57:36.628Z,99.90
2019-05-12T08:00:21.528Z,99.90
2019-05-12T08:03:14.344Z,99.90
2019-05-12T08:05:51.224Z,99.90
2019-05-12T08:08:33.957Z,99.90
2019-05-12T08:11:15.078Z,99.90
2019-05-12T08:13:56.712Z,99.90
2019-05-12T08:16:38.660Z,99.90
2019-05-12T08:19:23.780Z,99.90
2019-05-12T08:22:06.378Z,99.90
2019-05-12T08:24:48.226Z,99.90
2019-05-12T08:27:29.638Z,99.90
2019-05-12T08:30:13.757Z,99.90
2019-05-12T08:33:02.521Z,99.90
2019-05-12T08:35:38.632Z,99.90
2019-05-12T08:38:20.739Z,99.90
2019-05-12T08:41:04.089Z,99.90
2019-05-12T08:43:49.542Z,99.90
2019-05-12T08:46:28.679Z,99.90
2019-05-12T08:49:08.487Z,99.90
2019-05-12T08:52:00.085Z,99.90
2019-05-12T08:55:00.130Z,99.90
2019-05-12T08:57:49.270Z,99.90
2019-05-12T09:00:24.818Z,99.90
2019-05-12T09:03:06.814Z,99.90
2019-05-12T09:05:48.395Z,99.90
2019-05-12T09:08:29.580Z,99.90
2019-05-12T09:11:13.771Z,99.90
2019-05-12T09:14:00.654Z,99.90
2019-05-12T09:16:38.283Z,99.90
2019-05-12T09:19:24.210Z,99.90
2019-05-12T09:22:04.882Z,99.90
2019-05-12T09:24:46.790Z,99.90
2019-05-12T09:27:29.926Z,99.90
2019-05-12T09:30:11.282Z,99.90
2019-05-12T09:32:55.950Z,99.90
2019-05-12T09:35:39.191Z,99.90
2019-05-12T09:38:25.565Z,99.90
2019-05-12T09:41:05.258Z,99.90
2019-05-12T09:43:50.449Z,99.90
2019-05-12T09:46:34.254Z,99.90
2019-05-12T09:49:15.136Z,99.90
2019-05-12T09:51:57.032Z,99.90
2019-05-12T09:54:40.944Z,99.90
2019-05-12T09:57:23.858Z,99.90
2019-05-12T10:00:04.900Z,99.90
2019-05-12T10:02:51.260Z,99.90
2019-05-12T10:05:30.554Z,99.90
2019-05-12T10:08:13.872Z,99.90
2019-05-12T10:10:55.686Z,99.90
2019-05-12T10:13:36.831Z,99.90
2019-05-12T10:16:18.612Z,99.90
2019-05-12T10:19:00.592Z,99.90
2019-05-12T10:21:44.050Z,99.90
2019-05-12T10:24:13.160Z,99.90
2019-05-12T10:27:03.797Z,99.90
2019-05-12T10:30:11.846Z,99.90
2019-05-12T10:32:46.802Z,99.90
2019-05-12T10:35:28.799Z,99.90
2019-05-12T10:38:10.991Z,99.90
2019-05-12T10:40:53.570Z,99.90
2019-05-12T10:43:35.171Z,99.90
2019-05-12T10:46:18.471Z,99.90
2019-05-12T10:49:00.005Z,99.90
2019-05-12T10:51:43.775Z,99.90
2019-05-12T10:54:24.555Z,99.90
2019-05-12T10:57:05.932Z,99.90
2019-05-12T10:59:48.600Z,99.90
2019-05-12T11:02:30.831Z,99.90
2019-05-12T11:05:21.456Z,99.90
2019-05-12T11:08:00.337Z,99.90
2019-05-12T11:10:39.366Z,99.90
2019-05-12T11:13:23.244Z,99.90
2019-05-12T11:16:04.497Z,99.90
2019-05-12T11:18:45.672Z,99.90
2019-05-12T11:21:27.145Z,99.90
2019-05-12T11:24:09.190Z,98.00
2019-05-12T11:26:51.013Z,94.30
2019-05-12T11:29:45.773Z,91.40
2019-05-12T11:32:18.304Z,84.30
2019-05-12T11:34:59.557Z,77.10
2019-05-12T11:37:41.334Z,78.30
2019-05-12T11:40:23.860Z,77.10
2019-05-12T11:43:05.873Z,73.50
2019-05-12T11:45:47.731Z,74.90
2019-05-12T11:48:29.039Z,73.80
2019-05-12T11:51:10.846Z,66.10
2019-05-12T11:53:52.861Z,61.50
2019-05-12T11:56:34.937Z,57.40
2019-05-12T11:59:16.850Z,56.70
2019-05-12T12:01:58.215Z,51.40
2019-05-12T12:04:46.012Z,53.60
2019-05-12T12:07:29.552Z,53.30
2019-05-12T12:10:10.967Z,52.00
2019-05-12T12:12:47.178Z,53.10
2019-05-12T12:15:36.317Z,57.10
2019-05-12T12:18:17.489Z,57.20
2019-05-12T12:21:04.222Z,59.00
2019-05-12T12:23:30.608Z,56.50
2019-05-12T12:26:38.540Z,55.50
2019-05-12T12:29:20.509Z,54.00
2019-05-12T12:32:01.722Z,54.60
2019-05-12T12:34:44.077Z,56.80
2019-05-12T12:37:25.796Z,59.50
2019-05-12T12:40:07.237Z,59.70
2019-05-12T12:42:48.387Z,53.80
2019-05-12T12:45:49.240Z,51.40
2019-05-12T12:48:30.813Z,48.40
2019-05-12T12:51:17.225Z,47.20
2019-05-12T12:53:55.633Z,47.40
2019-05-12T12:56:37.441Z,45.50
2019-05-12T12:59:19.948Z,43.20
2019-05-12T13:04:48.383Z,42.30
2019-05-12T13:07:30.321Z,42.60
2019-05-12T13:10:17.150Z,42.00
2019-05-12T13:13:01.024Z,43.00
2019-05-12T13:15:44.349Z,41.00
2019-05-12T13:18:33.173Z,39.80
2019-05-12T13:21:08.758Z,40.80
2019-05-12T13:23:51.171Z,41.50
2019-05-12T13:26:35.904Z,41.90
2019-05-12T13:29:18.261Z,43.00
2019-05-12T13:31:59.492Z,42.60
2019-05-12T13:34:43.019Z,39.70
2019-05-12T13:37:25.429Z,38.70
2019-05-12T13:40:07.748Z,38.80
2019-05-12T13:42:49.771Z,37.70
2019-05-12T13:45:33.448Z,39.00
2019-05-12T13:48:19.673Z,39.60
2019-05-12T13:51:07.490Z,40.90
2019-05-12T13:53:48.479Z,40.50
2019-05-12T13:56:32.347Z,40.30
2019-05-12T13:59:12.212Z,38.20
2019-05-12T14:01:53.919Z,37.80
2019-05-12T14:04:36.368Z,37.40
2019-05-12T14:07:20.278Z,39.80
2019-05-12T14:10:03.465Z,39.60
2019-05-12T14:12:44.411Z,38.70
2019-05-12T14:15:25.705Z,39.70
2019-05-12T14:18:10.347Z,41.30
2019-05-12T14:20:58.829Z,44.30
2019-05-12T14:23:35.260Z,47.50
2019-05-12T14:26:16.708Z,47.00
2019-05-12T14:28:57.811Z,49.10
2019-05-12T14:31:45.307Z,49.90
2019-05-12T14:34:23.625Z,51.90
2019-05-12T14:37:10.238Z,51.70
2019-05-12T14:39:50.463Z,51.90
2019-05-12T14:42:34.679Z,48.60
2019-05-12T14:45:25.674Z,47.80
2019-05-12T14:48:09.480Z,50.10
2019-05-12T14:50:50.819Z,52.60
2019-05-12T14:53:32.994Z,53.40
2019-05-12T14:56:14.940Z,53.30
2019-05-12T14:59:00.603Z,50.90
2019-05-12T15:01:56.559Z,50.80
2019-05-12T15:04:29.543Z,51.70
2019-05-12T15:07:09.938Z,52.30
2019-05-12T15:09:53.869Z,54.10
2019-05-12T15:12:36.510Z,53.70
2019-05-12T15:15:20.436Z,47.70
2019-05-12T15:18:03.441Z,44.20
2019-05-12T15:20:49.808Z,42.90
2019-05-12T15:23:32.431Z,45.90
2019-05-12T15:26:14.927Z,46.60
2019-05-12T15:28:54.251Z,45.10
2019-05-12T15:31:35.390Z,44.30
2019-05-12T15:34:16.700Z,43.60
2019-05-12T15:37:00.351Z,43.70
2019-05-12T15:39:43.928Z,46.10
2019-05-12T15:42:25.327Z,48.50
2019-05-12T15:45:12.568Z,48.10
2019-05-12T15:47:50.269Z,47.90
2019-05-12T15:50:34.049Z,45.80
2019-05-12T15:53:22.089Z,41.90
2019-05-12T15:55:57.509Z,41.60
2019-05-12T15:58:39.464Z,40.30
2019-05-12T16:01:21.439Z,40.80
2019-05-12T16:04:03.674Z,39.50
2019-05-12T16:06:53.354Z,38.50
2019-05-12T16:09:30.031Z,37.60
2019-05-12T16:12:19.943Z,37.60
2019-05-12T16:14:55.679Z,36.70
2019-05-12T16:17:37.191Z,36.90
2019-05-12T16:20:19.559Z,38.00
2019-05-12T16:23:03.857Z,37.10
2019-05-12T16:25:45.580Z,37.20
2019-05-12T16:28:27.529Z,41.30
2019-05-12T16:31:09.459Z,42.40
2019-05-12T16:33:52.909Z,41.50
2019-05-12T16:36:35.111Z,40.40
2019-05-12T16:39:16.496Z,39.20
2019-05-12T16:42:00.075Z,39.30
2019-05-12T16:44:44.001Z,41.00
2019-05-12T16:47:29.178Z,41.70
2019-05-12T16:50:15.300Z,43.90
2019-05-12T16:52:53.594Z,45.70
2019-05-12T16:55:44.863Z,44.30
2019-05-12T16:58:26.169Z,42.60
2019-05-12T17:01:03.619Z,40.30
2019-05-12T17:03:44.614Z,38.50
2019-05-12T17:06:28.601Z,39.00
2019-05-12T17:09:09.596Z,39.30
2019-05-12T17:11:53.335Z,42.30
2019-05-12T17:14:38.760Z,44.20
2019-05-12T17:17:21.009Z,46.90
2019-05-12T17:20:04.528Z,49.20
2019-05-12T17:22:54.561Z,50.40
2019-05-12T17:25:29.222Z,50.50
2019-05-12T17:28:13.118Z,50.70
2019-05-12T17:30:54.628Z,51.30
2019-05-12T17:33:39.059Z,52.80
2019-05-12T17:36:24.246Z,53.70
2019-05-12T17:39:06.295Z,54.40
2019-05-12T17:41:47.681Z,55.00
2019-05-12T17:44:31.130Z,54.70
2019-05-12T17:47:21.393Z,54.50
2019-05-12T17:50:00.418Z,54.80
2019-05-12T17:52:39.672Z,54.40
2019-05-12T17:55:20.773Z,55.30
2019-05-12T17:58:04.084Z,55.80
2019-05-12T18:00:47.699Z,56.00
2019-05-12T18:03:29.623Z,56.60
2019-05-12T18:06:11.137Z,57.50
2019-05-12T18:08:53.393Z,58.00
2019-05-12T18:11:34.594Z,58.90
2019-05-12T18:14:16.684Z,59.60
2019-05-12T18:17:02.365Z,60.20
2019-05-12T18:19:44.262Z,60.60
2019-05-12T18:22:24.771Z,61.10
2019-05-12T18:25:06.632Z,61.40
2019-05-12T18:27:50.534Z,62.10
2019-05-12T18:30:30.721Z,62.80
2019-05-12T18:33:13.741Z,62.90
2019-05-12T18:35:55.663Z,62.60
2019-05-12T18:38:37.663Z,62.60
2019-05-12T18:41:18.969Z,62.70
2019-05-12T18:44:00.885Z,62.90
2019-05-12T18:46:45.298Z,63.40
2019-05-12T18:49:25.668Z,63.80
2019-05-12T18:52:07.822Z,64.10
2019-05-12T18:54:52.180Z,65.20
2019-05-12T18:57:33.775Z,65.80
2019-05-12T19:00:16.278Z,65.80
2019-05-12T19:02:59.736Z,66.50
2019-05-12T19:05:43.323Z,66.80
2019-05-12T19:08:24.468Z,67.10
2019-05-12T19:11:19.961Z,67.30
2019-05-12T19:13:56.984Z,67.20
2019-05-12T19:16:36.821Z,68.40
2019-05-12T19:19:20.031Z,69.20
2019-05-12T19:22:06.800Z,68.90
2019-05-12T19:24:44.490Z,70.40
2019-05-12T19:27:26.319Z,71.10
2019-05-12T19:30:08.319Z,72.90
2019-05-12T19:32:52.510Z,74.00
2019-05-12T19:35:34.157Z,75.90
2019-05-12T19:38:16.256Z,76.70
2019-05-12T19:41:00.759Z,78.80
2019-05-12T19:43:45.473Z,79.80
2019-05-12T19:46:24.265Z,81.00
2019-05-12T19:49:05.998Z,82.00
2019-05-12T19:51:47.774Z,85.40
2019-05-12T19:54:32.133Z,88.10
2019-05-12T19:57:21.511Z,91.10
2019-05-12T19:59:56.678Z,93.20
2019-05-12T20:02:38.249Z,95.40
2019-05-12T20:05:19.849Z,98.90
2019-05-12T20:08:03.996Z,99.90
2019-05-12T20:10:49.380Z,99.90
2019-05-12T20:13:35.921Z,99.90
2019-05-12T20:16:21.543Z,99.90
2019-05-12T20:18:58.135Z,99.90
2019-05-12T20:21:40.014Z,99.90
2019-05-12T20:24:23.166Z,99.90
2019-05-12T20:27:04.828Z,99.90
2019-05-12T20:29:46.618Z,99.90
2019-05-12T20:32:28.060Z,99.90
2019-05-12T20:35:09.641Z,99.90
2019-05-12T20:37:54.317Z,99.90
2019-05-12T20:40:37.674Z,99.90
2019-05-12T20:43:18.289Z,99.90
2019-05-12T20:46:00.294Z,99.90
2019-05-12T20:48:44.500Z,99.90
2019-05-12T20:51:25.272Z,99.90
2019-05-12T20:54:14.131Z,99.90
2019-05-12T20:56:52.948Z,99.90
2019-05-12T20:59:34.430Z,99.90
2019-05-12T21:02:16.223Z,99.90
2019-05-12T21:05:01.147Z,99.90
2019-05-12T21:07:40.449Z,99.90
2019-05-12T21:10:26.493Z,99.90
2019-05-12T21:13:07.273Z,99.90
2019-05-12T21:15:48.722Z,99.90
2019-05-12T21:18:44.604Z,99.90
2019-05-12T21:21:14.343Z,99.90
2019-05-12T21:23:59.327Z,99.90
2019-05-12T21:26:38.664Z,99.90
2019-05-12T21:29:25.537Z,99.90
2019-05-12T21:32:12.265Z,99.90
2019-05-12T21:34:46.455Z,99.90
2019-05-12T21:37:28.526Z,99.90
2019-05-12T21:40:10.562Z,99.90
2019-05-12T21:42:53.708Z,99.90
2019-05-12T21:45:35.279Z,99.90
2019-05-12T21:48:23.654Z,99.90
2019-05-12T21:50:59.464Z,99.90
2019-05-12T21:53:43.595Z,99.90
2019-05-12T21:56:24.543Z,99.90
2019-05-12T21:59:05.922Z,99.90
2019-05-12T22:01:47.897Z,99.90
2019-05-12T22:04:32.972Z,99.90
2019-05-12T22:07:15.044Z,99.90
2019-05-12T22:09:57.741Z,99.90
2019-05-12T22:12:39.377Z,99.90
2019-05-12T22:15:24.631Z,99.90
2019-05-12T22:18:06.221Z,99.90
2019-05-12T22:20:52.310Z,99.90
2019-05-12T22:23:31.103Z,99.90
2019-05-12T22:26:12.970Z,99.90
2019-05-12T22:28:54.970Z,99.90
2019-05-12T22:31:38.687Z,99.90
2019-05-12T22:34:20.625Z,99.90
2019-05-12T22:37:03.862Z,99.90
2019-05-12T22:39:45.459Z,99.90
2019-05-12T22:42:27.040Z,99.90
2019-05-12T22:45:08.709Z,99.90
2019-05-12T22:47:55.214Z,99.90
2019-05-12T22:50:35.274Z,99.90
2019-05-12T22:53:19.328Z,99.90
2019-05-12T22:56:02.997Z,99.90
2019-05-12T22:58:44.221Z,99.90
2019-05-12T23:01:25.779Z,99.90
2019-05-12T23:04:07.835Z,99.90
2019-05-12T23:06:49.662Z,99.90
2019-05-12T23:09:33.747Z,99.90
2019-05-12T23:12:18.079Z,99.90
2019-05-12T23:15:02.814Z,99.90
2019-05-12T23:17:45.237Z,99.90
2019-05-12T23:20:25.493Z,99.90
2019-05-12T23:23:09.142Z,99.90
2019-05-12T23:25:52.022Z,99.90
2019-05-12T23:28:21.788Z,99.90
2019-05-12T23:31:10.559Z,99.90
2019-05-12T23:33:51.715Z,99.90
2019-05-12T23:36:36.476Z,99.90
2019-05-12T23:39:15.835Z,99.90
2019-05-12T23:41:57.714Z,99.90
2019-05-12T23:44:44.023Z,99.90
2019-05-12T23:47:24.355Z,99.90
2019-05-12T23:50:05.691Z,99.90
2019-05-12T23:52:47.127Z,99.90
2019-05-12T23:55:29.036Z,99.90
2019-05-12T23:58:11.013Z,99.90
